sensor_id;sensor_type;location;lat;lon;timestamp;temperature;humidity
51637;DHT22;37713;53.254;6.460;2022-10-31T00:01:11;11.00;99.90
51637;DHT22;37713;53.254;6.460;2022-10-31T00:03:37;11.30;99.90
51637;DHT22;37713;53.254;6.460;2022-10-31T00:06:03;11.20;99.90
51637;DHT22;37713;53.254;6.460;2022-10-31T00:08:29;11.30;99.90
51637;DHT22;37713;53.254;6.460;2022-10-31T00:10:55;11.00;99.90
51637;DHT22;37713;53.254;6.460;2022-10-31T00:13:20;11.00;99.90
51637;DHT22;37713;53.254;6.460;2022-10-31T00:15:46;10.90;99.90
51637;DHT22;37713;53.254;6.460;2022-10-31T00:18:12;11.10;99.90
51637;DHT22;37713;53.254;6.460;2022-10-31T00:20:39;10.90;99.90
51637;DHT22;37713;53.254;6.460;2022-10-31T00:23:05;11.00;99.90
51637;DHT22;37713;53.254;6.460;2022-10-31T00:25:37;10.90;99.90
51637;DHT22;37713;53.254;6.460;2022-10-31T00:28:05;10.90;99.90
51637;DHT22;37713;53.254;6.460;2022-10-31T00:30:31;11.10;99.90
51637;DHT22;37713;53.254;6.460;2022-10-31T00:32:57;11.00;99.90
51637;DHT22;37713;53.254;6.460;2022-10-31T00:35:23;10.90;99.90
51637;DHT22;37713;53.254;6.460;2022-10-31T00:37:49;11.00;99.90
51637;DHT22;37713;53.254;6.460;2022-10-31T00:40:15;10.90;99.90
51637;DHT22;37713;53.254;6.460;2022-10-31T00:42:40;10.90;99.90
51637;DHT22;37713;53.254;6.460;2022-10-31T00:45:10;10.60;99.90
51637;DHT22;37713;53.254;6.460;2022-10-31T00:47:36;10.80;99.90
51637;DHT22;37713;53.254;6.460;2022-10-31T00:50:04;10.80;99.90
51637;DHT22;37713;53.254;6.460;2022-10-31T00:52:30;10.90;99.90
51637;DHT22;37713;53.254;6.460;2022-10-31T00:54:56;10.80;99.90
51637;DHT22;37713;53.254;6.460;2022-10-31T00:57:21;10.90;99.90
51637;DHT22;37713;53.254;6.460;2022-10-31T00:59:47;10.80;99.90
51637;DHT22;37713;53.254;6.460;2022-10-31T01:02:13;10.50;99.90
51637;DHT22;37713;53.254;6.460;2022-10-31T01:04:38;10.60;99.90
51637;DHT22;37713;53.254;6.460;2022-10-31T01:07:04;10.60;99.90
51637;DHT22;37713;53.254;6.460;2022-10-31T01:09:30;10.50;99.90
51637;DHT22;37713;53.254;6.460;2022-10-31T01:11:56;10.60;99.90
51637;DHT22;37713;53.254;6.460;2022-10-31T01:14:21;10.50;99.90
51637;DHT22;37713;53.254;6.460;2022-10-31T01:16:47;10.40;99.90
51637;DHT22;37713;53.254;6.460;2022-10-31T01:19:13;10.40;99.90
51637;DHT22;37713;53.254;6.460;2022-10-31T01:21:38;10.60;99.90
51637;DHT22;37713;53.254;6.460;2022-10-31T01:24:04;10.40;99.90
51637;DHT22;37713;53.254;6.460;2022-10-31T01:26:32;10.30;99.90
51637;DHT22;37713;53.254;6.460;2022-10-31T01:29:01;10.70;99.90
51637;DHT22;37713;53.254;6.460;2022-10-31T01:31:30;10.70;99.90
51637;DHT22;37713;53.254;6.460;2022-10-31T01:33:56;10.50;99.90
51637;DHT22;37713;53.254;6.460;2022-10-31T01:36:30;10.40;99.90
51637;DHT22;37713;53.254;6.460;2022-10-31T01:38:59;10.60;99.90
51637;DHT22;37713;53.254;6.460;2022-10-31T01:41:28;10.30;99.90
51637;DHT22;37713;53.254;6.460;2022-10-31T01:43:59;10.60;99.90
51637;DHT22;37713;53.254;6.460;2022-10-31T01:46:38;10.20;99.90
51637;DHT22;37713;53.254;6.460;2022-10-31T01:49:11;10.40;99.90
51637;DHT22;37713;53.254;6.460;2022-10-31T01:51:44;10.50;99.90
51637;DHT22;37713;53.254;6.460;2022-10-31T01:54:14;10.30;99.90
51637;DHT22;37713;53.254;6.460;2022-10-31T01:56:43;10.40;99.90
51637;DHT22;37713;53.254;6.460;2022-10-31T01:59:12;10.40;99.90
51637;DHT22;37713;53.254;6.460;2022-10-31T02:01:39;10.50;99.90
51637;DHT22;37713;53.254;6.460;2022-10-31T02:04:06;10.20;99.90
51637;DHT22;37713;53.254;6.460;2022-10-31T02:06:59;10.10;99.90
51637;DHT22;37713;53.254;6.460;2022-10-31T02:09:24;10.30;99.90
51637;DHT22;37713;53.254;6.460;2022-10-31T02:11:57;10.10;99.90
51637;DHT22;37713;53.254;6.460;2022-10-31T02:14:25;10.40;99.90
51637;DHT22;37713;53.254;6.460;2022-10-31T02:16:53;10.40;99.90
51637;DHT22;37713;53.254;6.460;2022-10-31T02:22:21;10.10;99.90
51637;DHT22;37713;53.254;6.460;2022-10-31T02:40:22;10.30;99.90
51637;DHT22;37713;53.254;6.460;2022-10-31T02:45:32;10.20;99.90
51637;DHT22;37713;53.254;6.460;2022-10-31T02:48:07;10.10;99.90
51637;DHT22;37713;53.254;6.460;2022-10-31T02:50:39;10.10;99.90
51637;DHT22;37713;53.254;6.460;2022-10-31T02:53:06;9.80;99.90
51637;DHT22;37713;53.254;6.460;2022-10-31T02:58:04;9.80;99.90
51637;DHT22;37713;53.254;6.460;2022-10-31T03:00:50;10.10;99.90
51637;DHT22;37713;53.254;6.460;2022-10-31T03:06:35;10.00;99.90
51637;DHT22;37713;53.254;6.460;2022-10-31T03:09:18;10.00;99.90
51637;DHT22;37713;53.254;6.460;2022-10-31T03:11:58;9.90;99.90
51637;DHT22;37713;53.254;6.460;2022-10-31T03:17:07;9.90;99.90
51637;DHT22;37713;53.254;6.460;2022-10-31T03:19:42;9.60;99.90
51637;DHT22;37713;53.254;6.460;2022-10-31T03:22:16;9.60;99.90
51637;DHT22;37713;53.254;6.460;2022-10-31T03:24:43;9.90;99.90
51637;DHT22;37713;53.254;6.460;2022-10-31T03:27:14;9.80;99.90
51637;DHT22;37713;53.254;6.460;2022-10-31T03:29:42;9.80;99.90
51637;DHT22;37713;53.254;6.460;2022-10-31T03:32:14;9.50;99.90
51637;DHT22;37713;53.254;6.460;2022-10-31T03:34:43;9.70;99.90
51637;DHT22;37713;53.254;6.460;2022-10-31T03:37:11;9.50;99.90
51637;DHT22;37713;53.254;6.460;2022-10-31T03:39:41;9.50;99.90
51637;DHT22;37713;53.254;6.460;2022-10-31T03:42:15;9.50;99.90
51637;DHT22;37713;53.254;6.460;2022-10-31T03:44:44;9.60;99.90
51637;DHT22;37713;53.254;6.460;2022-10-31T03:47:11;9.60;99.90
51637;DHT22;37713;53.254;6.460;2022-10-31T03:49:38;9.30;99.90
51637;DHT22;37713;53.254;6.460;2022-10-31T03:55:10;9.30;99.90
51637;DHT22;37713;53.254;6.460;2022-10-31T04:00:13;9.50;99.90
51637;DHT22;37713;53.254;6.460;2022-10-31T04:02:46;9.50;99.90
51637;DHT22;37713;53.254;6.460;2022-10-31T04:05:13;9.40;99.90
51637;DHT22;37713;53.254;6.460;2022-10-31T04:07:44;9.10;99.90
51637;DHT22;37713;53.254;6.460;2022-10-31T04:10:14;9.20;99.90
51637;DHT22;37713;53.254;6.460;2022-10-31T04:12:41;9.40;99.90
51637;DHT22;37713;53.254;6.460;2022-10-31T04:15:09;9.20;99.90
51637;DHT22;37713;53.254;6.460;2022-10-31T04:17:40;9.10;99.90
51637;DHT22;37713;53.254;6.460;2022-10-31T04:20:07;9.20;99.90
51637;DHT22;37713;53.254;6.460;2022-10-31T04:22:33;9.40;99.90
51637;DHT22;37713;53.254;6.460;2022-10-31T04:24:59;9.40;99.90
51637;DHT22;37713;53.254;6.460;2022-10-31T04:27:25;9.30;99.90
51637;DHT22;37713;53.254;6.460;2022-10-31T04:29:50;9.20;99.90
51637;DHT22;37713;53.254;6.460;2022-10-31T04:32:16;9.10;99.90
51637;DHT22;37713;53.254;6.460;2022-10-31T04:34:43;9.20;99.90
51637;DHT22;37713;53.254;6.460;2022-10-31T04:37:08;9.00;99.90
51637;DHT22;37713;53.254;6.460;2022-10-31T04:39:34;9.30;99.90
51637;DHT22;37713;53.254;6.460;2022-10-31T04:42:00;9.00;99.90
51637;DHT22;37713;53.254;6.460;2022-10-31T04:44:25;9.00;99.90
51637;DHT22;37713;53.254;6.460;2022-10-31T04:46:51;9.10;99.90
51637;DHT22;37713;53.254;6.460;2022-10-31T04:49:17;8.90;99.90
51637;DHT22;37713;53.254;6.460;2022-10-31T04:51:45;9.00;99.90
51637;DHT22;37713;53.254;6.460;2022-10-31T04:54:11;9.20;99.90
51637;DHT22;37713;53.254;6.460;2022-10-31T04:56:36;9.30;99.90
51637;DHT22;37713;53.254;6.460;2022-10-31T04:59:02;9.20;99.90
51637;DHT22;37713;53.254;6.460;2022-10-31T05:01:28;9.10;99.90
51637;DHT22;37713;53.254;6.460;2022-10-31T05:03:54;8.90;99.90
51637;DHT22;37713;53.254;6.460;2022-10-31T05:06:19;9.20;99.90
51637;DHT22;37713;53.254;6.460;2022-10-31T05:08:45;9.10;99.90
51637;DHT22;37713;53.254;6.460;2022-10-31T05:11:11;8.80;99.90
51637;DHT22;37713;53.254;6.460;2022-10-31T05:13:37;8.80;99.90
51637;DHT22;37713;53.254;6.460;2022-10-31T05:16:02;8.90;99.90
51637;DHT22;37713;53.254;6.460;2022-10-31T05:18:28;8.90;99.90
51637;DHT22;37713;53.254;6.460;2022-10-31T05:20:54;8.90;99.90
51637;DHT22;37713;53.254;6.460;2022-10-31T05:23:20;9.00;99.90
51637;DHT22;37713;53.254;6.460;2022-10-31T05:25:45;8.90;99.90
51637;DHT22;37713;53.254;6.460;2022-10-31T05:28:11;8.80;99.90
51637;DHT22;37713;53.254;6.460;2022-10-31T05:30:37;8.90;99.90
51637;DHT22;37713;53.254;6.460;2022-10-31T05:33:03;9.10;99.90
51637;DHT22;37713;53.254;6.460;2022-10-31T05:35:31;8.90;99.90
51637;DHT22;37713;53.254;6.460;2022-10-31T05:37:57;9.10;99.90
51637;DHT22;37713;53.254;6.460;2022-10-31T05:40:24;9.00;99.90
51637;DHT22;37713;53.254;6.460;2022-10-31T05:42:51;8.80;99.90
51637;DHT22;37713;53.254;6.460;2022-10-31T05:45:18;8.80;99.90
51637;DHT22;37713;53.254;6.460;2022-10-31T05:48:00;8.90;99.90
51637;DHT22;37713;53.254;6.460;2022-10-31T05:50:28;9.00;99.90
51637;DHT22;37713;53.254;6.460;2022-10-31T05:53:02;9.00;99.90
51637;DHT22;37713;53.254;6.460;2022-10-31T05:55:28;8.70;99.90
51637;DHT22;37713;53.254;6.460;2022-10-31T05:57:55;8.90;99.90
51637;DHT22;37713;53.254;6.460;2022-10-31T06:00:21;8.80;99.90
51637;DHT22;37713;53.254;6.460;2022-10-31T06:02:47;8.80;99.90
51637;DHT22;37713;53.254;6.460;2022-10-31T06:05:13;8.80;99.90
51637;DHT22;37713;53.254;6.460;2022-10-31T06:07:39;8.60;99.90
51637;DHT22;37713;53.254;6.460;2022-10-31T06:10:06;8.80;99.90
51637;DHT22;37713;53.254;6.460;2022-10-31T06:12:33;8.90;99.90
51637;DHT22;37713;53.254;6.460;2022-10-31T06:15:04;8.60;99.90
51637;DHT22;37713;53.254;6.460;2022-10-31T06:17:31;8.70;99.90
51637;DHT22;37713;53.254;6.460;2022-10-31T06:19:57;8.60;99.90
51637;DHT22;37713;53.254;6.460;2022-10-31T06:22:22;8.50;99.90
51637;DHT22;37713;53.254;6.460;2022-10-31T06:24:48;8.50;99.90
51637;DHT22;37713;53.254;6.460;2022-10-31T06:27:14;8.50;99.90
51637;DHT22;37713;53.254;6.460;2022-10-31T06:29:39;8.50;99.90
51637;DHT22;37713;53.254;6.460;2022-10-31T06:32:05;8.70;99.90
51637;DHT22;37713;53.254;6.460;2022-10-31T06:34:31;8.50;99.90
51637;DHT22;37713;53.254;6.460;2022-10-31T06:36:57;8.70;99.90
51637;DHT22;37713;53.254;6.460;2022-10-31T06:39:22;8.80;99.90
51637;DHT22;37713;53.254;6.460;2022-10-31T06:41:48;8.70;99.90
51637;DHT22;37713;53.254;6.460;2022-10-31T06:44:14;8.70;99.90
51637;DHT22;37713;53.254;6.460;2022-10-31T06:46:40;8.50;99.90
51637;DHT22;37713;53.254;6.460;2022-10-31T06:49:05;8.80;99.90
51637;DHT22;37713;53.254;6.460;2022-10-31T06:51:31;8.70;99.90
51637;DHT22;37713;53.254;6.460;2022-10-31T06:53:57;8.80;99.90
51637;DHT22;37713;53.254;6.460;2022-10-31T06:56:23;8.60;99.90
51637;DHT22;37713;53.254;6.460;2022-10-31T06:58:48;8.70;99.90
51637;DHT22;37713;53.254;6.460;2022-10-31T07:01:14;8.70;99.90
51637;DHT22;37713;53.254;6.460;2022-10-31T07:03:40;8.60;99.90
51637;DHT22;37713;53.254;6.460;2022-10-31T07:06:05;8.80;99.90
51637;DHT22;37713;53.254;6.460;2022-10-31T07:08:31;8.70;99.90
51637;DHT22;37713;53.254;6.460;2022-10-31T07:10:57;8.70;99.90
51637;DHT22;37713;53.254;6.460;2022-10-31T07:13:23;8.70;99.90
51637;DHT22;37713;53.254;6.460;2022-10-31T07:15:59;8.90;99.90
51637;DHT22;37713;53.254;6.460;2022-10-31T07:18:25;8.70;99.90
51637;DHT22;37713;53.254;6.460;2022-10-31T07:20:52;8.60;99.90
51637;DHT22;37713;53.254;6.460;2022-10-31T07:23:18;8.90;99.90
51637;DHT22;37713;53.254;6.460;2022-10-31T07:25:44;8.60;99.90
51637;DHT22;37713;53.254;6.460;2022-10-31T07:28:10;9.00;99.90
51637;DHT22;37713;53.254;6.460;2022-10-31T07:30:37;9.00;99.90
51637;DHT22;37713;53.254;6.460;2022-10-31T07:33:04;9.10;99.90
51637;DHT22;37713;53.254;6.460;2022-10-31T07:35:31;9.00;99.90
51637;DHT22;37713;53.254;6.460;2022-10-31T07:37:57;9.20;99.90
51637;DHT22;37713;53.254;6.460;2022-10-31T07:40:24;9.20;99.90
51637;DHT22;37713;53.254;6.460;2022-10-31T07:42:51;9.30;99.90
51637;DHT22;37713;53.254;6.460;2022-10-31T07:45:19;9.30;99.90
51637;DHT22;37713;53.254;6.460;2022-10-31T07:47:46;9.10;99.90
51637;DHT22;37713;53.254;6.460;2022-10-31T07:50:14;9.40;99.90
51637;DHT22;37713;53.254;6.460;2022-10-31T07:52:40;9.30;99.90
51637;DHT22;37713;53.254;6.460;2022-10-31T07:55:07;9.50;99.90
51637;DHT22;37713;53.254;6.460;2022-10-31T07:57:33;9.40;99.90
51637;DHT22;37713;53.254;6.460;2022-10-31T07:59:58;9.40;99.90
51637;DHT22;37713;53.254;6.460;2022-10-31T08:02:24;9.80;99.90
51637;DHT22;37713;53.254;6.460;2022-10-31T08:04:50;9.60;99.90
51637;DHT22;37713;53.254;6.460;2022-10-31T08:07:17;9.80;99.90
51637;DHT22;37713;53.254;6.460;2022-10-31T08:09:42;9.70;99.90
51637;DHT22;37713;53.254;6.460;2022-10-31T08:12:08;10.10;99.90
51637;DHT22;37713;53.254;6.460;2022-10-31T08:14:34;10.20;99.90
51637;DHT22;37713;53.254;6.460;2022-10-31T08:17:00;10.20;99.90
51637;DHT22;37713;53.254;6.460;2022-10-31T08:19:25;10.00;99.90
51637;DHT22;37713;53.254;6.460;2022-10-31T08:21:52;10.20;99.90
51637;DHT22;37713;53.254;6.460;2022-10-31T08:24:20;10.40;99.90
51637;DHT22;37713;53.254;6.460;2022-10-31T08:26:46;10.30;99.90
51637;DHT22;37713;53.254;6.460;2022-10-31T08:29:12;10.50;99.90
51637;DHT22;37713;53.254;6.460;2022-10-31T08:31:38;10.60;99.90
51637;DHT22;37713;53.254;6.460;2022-10-31T08:34:04;10.30;99.90
51637;DHT22;37713;53.254;6.460;2022-10-31T08:36:30;10.50;99.90
51637;DHT22;37713;53.254;6.460;2022-10-31T08:38:56;10.30;99.90
51637;DHT22;37713;53.254;6.460;2022-10-31T08:41:22;10.70;99.90
51637;DHT22;37713;53.254;6.460;2022-10-31T08:43:48;10.30;99.90
51637;DHT22;37713;53.254;6.460;2022-10-31T08:46:13;10.60;99.90
51637;DHT22;37713;53.254;6.460;2022-10-31T08:48:39;10.70;99.90
51637;DHT22;37713;53.254;6.460;2022-10-31T08:51:05;10.70;99.90
51637;DHT22;37713;53.254;6.460;2022-10-31T08:53:31;10.90;99.90
51637;DHT22;37713;53.254;6.460;2022-10-31T08:55:57;10.60;99.90
51637;DHT22;37713;53.254;6.460;2022-10-31T08:58:23;10.70;99.90
51637;DHT22;37713;53.254;6.460;2022-10-31T09:00:52;10.90;99.90
51637;DHT22;37713;53.254;6.460;2022-10-31T09:03:22;10.80;99.90
51637;DHT22;37713;53.254;6.460;2022-10-31T09:05:49;11.00;99.90
51637;DHT22;37713;53.254;6.460;2022-10-31T09:08:16;10.80;99.90
51637;DHT22;37713;53.254;6.460;2022-10-31T09:10:42;10.90;99.90
51637;DHT22;37713;53.254;6.460;2022-10-31T09:13:13;11.20;99.90
51637;DHT22;37713;53.254;6.460;2022-10-31T09:15:40;11.20;99.90
51637;DHT22;37713;53.254;6.460;2022-10-31T09:18:08;11.10;99.90
51637;DHT22;37713;53.254;6.460;2022-10-31T09:20:35;11.00;99.90
51637;DHT22;37713;53.254;6.460;2022-10-31T09:23:06;11.10;99.90
51637;DHT22;37713;53.254;6.460;2022-10-31T09:25:33;11.50;99.90
51637;DHT22;37713;53.254;6.460;2022-10-31T09:28:00;11.60;99.90
51637;DHT22;37713;53.254;6.460;2022-10-31T09:30:27;11.50;99.90
51637;DHT22;37713;53.254;6.460;2022-10-31T09:32:58;11.40;99.90
51637;DHT22;37713;53.254;6.460;2022-10-31T09:35:25;11.80;99.90
51637;DHT22;37713;53.254;6.460;2022-10-31T09:37:58;11.60;99.90
51637;DHT22;37713;53.254;6.460;2022-10-31T09:40:37;11.70;99.90
51637;DHT22;37713;53.254;6.460;2022-10-31T09:52:44;12.00;99.90
51637;DHT22;37713;53.254;6.460;2022-10-31T09:55:13;12.40;99.90
51637;DHT22;37713;53.254;6.460;2022-10-31T09:57:40;12.40;99.90
51637;DHT22;37713;53.254;6.460;2022-10-31T10:00:09;12.30;99.90
51637;DHT22;37713;53.254;6.460;2022-10-31T10:05:37;12.70;99.90
51637;DHT22;37713;53.254;6.460;2022-10-31T10:08:20;12.60;99.90
51637;DHT22;37713;53.254;6.460;2022-10-31T10:10:50;12.50;99.90
51637;DHT22;37713;53.254;6.460;2022-10-31T10:18:30;12.90;99.90
51637;DHT22;37713;53.254;6.460;2022-10-31T10:21:20;12.70;99.90
51637;DHT22;37713;53.254;6.460;2022-10-31T10:26:38;13.10;99.90
51637;DHT22;37713;53.254;6.460;2022-10-31T10:29:37;13.00;99.90
51637;DHT22;37713;53.254;6.460;2022-10-31T10:32:13;13.20;99.90
51637;DHT22;37713;53.254;6.460;2022-10-31T10:34:47;13.40;99.90
51637;DHT22;37713;53.254;6.460;2022-10-31T10:37:27;13.50;99.90
51637;DHT22;37713;53.254;6.460;2022-10-31T10:40:07;13.40;99.90
51637;DHT22;37713;53.254;6.460;2022-10-31T10:42:33;13.30;99.90
51637;DHT22;37713;53.254;6.460;2022-10-31T10:45:19;13.40;99.90
51637;DHT22;37713;53.254;6.460;2022-10-31T10:50:51;13.60;99.90
51637;DHT22;37713;53.254;6.460;2022-10-31T10:53:50;13.50;99.90
51637;DHT22;37713;53.254;6.460;2022-10-31T10:56:41;13.60;99.90
51637;DHT22;37713;53.254;6.460;2022-10-31T10:59:13;13.70;99.90
51637;DHT22;37713;53.254;6.460;2022-10-31T11:01:41;13.80;99.90
51637;DHT22;37713;53.254;6.460;2022-10-31T11:07:05;13.90;99.90
51637;DHT22;37713;53.254;6.460;2022-10-31T11:09:33;13.90;99.90
51637;DHT22;37713;53.254;6.460;2022-10-31T11:12:05;13.80;99.90
51637;DHT22;37713;53.254;6.460;2022-10-31T11:14:43;14.00;99.90
51637;DHT22;37713;53.254;6.460;2022-10-31T11:17:17;14.00;99.90
51637;DHT22;37713;53.254;6.460;2022-10-31T11:19:43;14.00;99.90
51637;DHT22;37713;53.254;6.460;2022-10-31T11:22:16;14.00;99.90
51637;DHT22;37713;53.254;6.460;2022-10-31T11:24:42;14.10;99.90
51637;DHT22;37713;53.254;6.460;2022-10-31T11:27:24;14.20;99.90
51637;DHT22;37713;53.254;6.460;2022-10-31T11:29:50;14.20;99.90
51637;DHT22;37713;53.254;6.460;2022-10-31T11:32:24;14.10;99.90
51637;DHT22;37713;53.254;6.460;2022-10-31T11:34:55;14.20;99.90
51637;DHT22;37713;53.254;6.460;2022-10-31T11:37:25;14.10;99.90
51637;DHT22;37713;53.254;6.460;2022-10-31T11:39:55;14.00;99.90
51637;DHT22;37713;53.254;6.460;2022-10-31T11:42:23;14.00;99.90
51637;DHT22;37713;53.254;6.460;2022-10-31T11:44:50;14.00;99.90
51637;DHT22;37713;53.254;6.460;2022-10-31T11:47:18;13.90;99.90
51637;DHT22;37713;53.254;6.460;2022-10-31T11:49:47;13.90;99.90
51637;DHT22;37713;53.254;6.460;2022-10-31T11:52:20;13.90;99.90
51637;DHT22;37713;53.254;6.460;2022-10-31T11:54:58;13.90;99.90
51637;DHT22;37713;53.254;6.460;2022-10-31T12:00:25;14.10;99.90
51637;DHT22;37713;53.254;6.460;2022-10-31T12:05:37;14.20;99.90
51637;DHT22;37713;53.254;6.460;2022-10-31T12:08:08;14.40;99.90
51637;DHT22;37713;53.254;6.460;2022-10-31T12:11:02;14.50;99.90
51637;DHT22;37713;53.254;6.460;2022-10-31T12:13:35;14.60;99.90
51637;DHT22;37713;53.254;6.460;2022-10-31T12:28:54;14.80;99.90
51637;DHT22;37713;53.254;6.460;2022-10-31T12:47:32;14.90;99.90
51637;DHT22;37713;53.254;6.460;2022-10-31T12:50:14;15.00;99.90
51637;DHT22;37713;53.254;6.460;2022-10-31T12:58:39;15.00;99.90
51637;DHT22;37713;53.254;6.460;2022-10-31T13:01:14;15.00;99.90
51637;DHT22;37713;53.254;6.460;2022-10-31T13:03:52;15.00;99.90
51637;DHT22;37713;53.254;6.460;2022-10-31T13:06:29;15.00;99.90
51637;DHT22;37713;53.254;6.460;2022-10-31T13:09:06;15.00;99.90
51637;DHT22;37713;53.254;6.460;2022-10-31T13:11:44;15.10;99.90
51637;DHT22;37713;53.254;6.460;2022-10-31T13:14:32;15.00;99.90
51637;DHT22;37713;53.254;6.460;2022-10-31T13:17:00;15.00;99.90
51637;DHT22;37713;53.254;6.460;2022-10-31T13:19:46;15.00;99.90
51637;DHT22;37713;53.254;6.460;2022-10-31T13:22:17;15.00;99.90
51637;DHT22;37713;53.254;6.460;2022-10-31T13:27:29;14.90;99.90
51637;DHT22;37713;53.254;6.460;2022-10-31T13:35:33;14.80;99.90
51637;DHT22;37713;53.254;6.460;2022-10-31T13:38:20;14.80;99.90
51637;DHT22;37713;53.254;6.460;2022-10-31T13:40:59;14.80;99.90
51637;DHT22;37713;53.254;6.460;2022-10-31T13:43:46;14.80;99.90
51637;DHT22;37713;53.254;6.460;2022-10-31T13:46:26;14.90;99.90
51637;DHT22;37713;53.254;6.460;2022-10-31T13:48:59;15.00;99.90
51637;DHT22;37713;53.254;6.460;2022-10-31T13:51:30;15.00;99.90
51637;DHT22;37713;53.254;6.460;2022-10-31T13:53:59;15.10;99.90
51637;DHT22;37713;53.254;6.460;2022-10-31T13:56:31;15.10;99.90
51637;DHT22;37713;53.254;6.460;2022-10-31T14:01:34;15.30;99.90
51637;DHT22;37713;53.254;6.460;2022-10-31T14:04:14;15.30;99.90
51637;DHT22;37713;53.254;6.460;2022-10-31T14:09:28;15.20;99.90
51637;DHT22;37713;53.254;6.460;2022-10-31T14:11:56;15.20;99.90
51637;DHT22;37713;53.254;6.460;2022-10-31T14:14:29;15.10;99.90
51637;DHT22;37713;53.254;6.460;2022-10-31T14:16:57;15.10;99.90
51637;DHT22;37713;53.254;6.460;2022-10-31T14:19:24;15.00;99.90
51637;DHT22;37713;53.254;6.460;2022-10-31T14:21:51;14.90;99.90
51637;DHT22;37713;53.254;6.460;2022-10-31T14:29:50;14.80;99.90
51637;DHT22;37713;53.254;6.460;2022-10-31T14:32:22;14.70;99.90
51637;DHT22;37713;53.254;6.460;2022-10-31T14:34:55;14.80;99.90
51637;DHT22;37713;53.254;6.460;2022-10-31T14:46:16;14.60;99.90
51637;DHT22;37713;53.254;6.460;2022-10-31T14:50:56;14.50;99.90
51637;DHT22;37713;53.254;6.460;2022-10-31T14:53:40;14.50;99.90
51637;DHT22;37713;53.254;6.460;2022-10-31T14:56:10;14.50;99.90
51637;DHT22;37713;53.254;6.460;2022-10-31T14:58:42;14.50;99.90
51637;DHT22;37713;53.254;6.460;2022-10-31T15:01:21;14.60;99.90
51637;DHT22;37713;53.254;6.460;2022-10-31T15:03:48;14.50;99.90
51637;DHT22;37713;53.254;6.460;2022-10-31T15:06:16;14.40;99.90
51637;DHT22;37713;53.254;6.460;2022-10-31T15:11:23;14.40;99.90
51637;DHT22;37713;53.254;6.460;2022-10-31T15:13:52;14.40;99.90
51637;DHT22;37713;53.254;6.460;2022-10-31T15:16:22;14.30;99.90
51637;DHT22;37713;53.254;6.460;2022-10-31T15:18:52;14.40;99.90
51637;DHT22;37713;53.254;6.460;2022-10-31T15:21:20;14.30;99.90
51637;DHT22;37713;53.254;6.460;2022-10-31T15:23:47;14.20;99.90
51637;DHT22;37713;53.254;6.460;2022-10-31T15:26:18;14.20;99.90
51637;DHT22;37713;53.254;6.460;2022-10-31T15:28:45;14.10;99.90
51637;DHT22;37713;53.254;6.460;2022-10-31T15:31:17;14.10;99.90
51637;DHT22;37713;53.254;6.460;2022-10-31T15:33:46;14.10;99.90
51637;DHT22;37713;53.254;6.460;2022-10-31T15:36:32;14.00;99.90
51637;DHT22;37713;53.254;6.460;2022-10-31T15:38:58;13.80;99.90
51637;DHT22;37713;53.254;6.460;2022-10-31T15:44:10;13.90;99.90
51637;DHT22;37713;53.254;6.460;2022-10-31T15:46:37;13.80;99.90
51637;DHT22;37713;53.254;6.460;2022-10-31T15:49:03;13.70;99.90
51637;DHT22;37713;53.254;6.460;2022-10-31T15:51:33;13.70;99.90
51637;DHT22;37713;53.254;6.460;2022-10-31T15:54:00;13.60;99.90
51637;DHT22;37713;53.254;6.460;2022-10-31T15:56:30;13.60;99.90
51637;DHT22;37713;53.254;6.460;2022-10-31T15:58:59;13.50;99.90
51637;DHT22;37713;53.254;6.460;2022-10-31T16:01:31;13.60;99.90
51637;DHT22;37713;53.254;6.460;2022-10-31T16:06:37;13.50;99.90
51637;DHT22;37713;53.254;6.460;2022-10-31T16:09:20;13.50;99.90
51637;DHT22;37713;53.254;6.460;2022-10-31T16:11:46;13.40;99.90
51637;DHT22;37713;53.254;6.460;2022-10-31T16:16:44;13.40;99.90
51637;DHT22;37713;53.254;6.460;2022-10-31T16:19:35;13.40;99.90
51637;DHT22;37713;53.254;6.460;2022-10-31T16:22:08;13.40;99.90
51637;DHT22;37713;53.254;6.460;2022-10-31T16:24:45;13.30;99.90
51637;DHT22;37713;53.254;6.460;2022-10-31T16:27:20;13.40;99.90
51637;DHT22;37713;53.254;6.460;2022-10-31T16:29:51;13.40;99.90
51637;DHT22;37713;53.254;6.460;2022-10-31T16:32:51;13.30;99.90
51637;DHT22;37713;53.254;6.460;2022-10-31T16:35:25;13.40;99.90
51637;DHT22;37713;53.254;6.460;2022-10-31T16:37:51;13.30;99.90
51637;DHT22;37713;53.254;6.460;2022-10-31T16:40:17;13.20;99.90
51637;DHT22;37713;53.254;6.460;2022-10-31T16:42:44;13.20;99.90
51637;DHT22;37713;53.254;6.460;2022-10-31T16:45:19;13.30;99.90
51637;DHT22;37713;53.254;6.460;2022-10-31T16:47:45;13.20;99.90
51637;DHT22;37713;53.254;6.460;2022-10-31T16:50:24;13.20;99.90
51637;DHT22;37713;53.254;6.460;2022-10-31T16:52:50;13.10;99.90
51637;DHT22;37713;53.254;6.460;2022-10-31T16:55:17;13.20;99.90
51637;DHT22;37713;53.254;6.460;2022-10-31T16:57:47;13.10;99.90
51637;DHT22;37713;53.254;6.460;2022-10-31T17:00:14;13.10;99.90
51637;DHT22;37713;53.254;6.460;2022-10-31T17:02:41;13.10;99.90
51637;DHT22;37713;53.254;6.460;2022-10-31T17:05:11;13.00;99.90
51637;DHT22;37713;53.254;6.460;2022-10-31T17:07:37;13.00;99.90
51637;DHT22;37713;53.254;6.460;2022-10-31T17:10:03;13.00;99.90
51637;DHT22;37713;53.254;6.460;2022-10-31T17:12:29;13.10;99.90
51637;DHT22;37713;53.254;6.460;2022-10-31T17:14:55;13.00;99.90
51637;DHT22;37713;53.254;6.460;2022-10-31T17:17:21;13.00;99.90
51637;DHT22;37713;53.254;6.460;2022-10-31T17:19:47;13.00;99.90
51637;DHT22;37713;53.254;6.460;2022-10-31T17:22:14;13.00;99.90
51637;DHT22;37713;53.254;6.460;2022-10-31T17:24:40;12.90;99.90
51637;DHT22;37713;53.254;6.460;2022-10-31T17:27:06;12.90;99.90
51637;DHT22;37713;53.254;6.460;2022-10-31T17:29:32;12.90;99.90
51637;DHT22;37713;53.254;6.460;2022-10-31T17:31:58;12.90;99.90
51637;DHT22;37713;53.254;6.460;2022-10-31T17:34:25;12.90;99.90
51637;DHT22;37713;53.254;6.460;2022-10-31T17:36:51;12.90;99.90
51637;DHT22;37713;53.254;6.460;2022-10-31T17:39:18;12.90;99.90
51637;DHT22;37713;53.254;6.460;2022-10-31T17:41:44;12.90;99.90
51637;DHT22;37713;53.254;6.460;2022-10-31T17:44:11;12.90;99.90
51637;DHT22;37713;53.254;6.460;2022-10-31T17:46:37;12.90;99.90
51637;DHT22;37713;53.254;6.460;2022-10-31T17:49:03;13.00;99.90
51637;DHT22;37713;53.254;6.460;2022-10-31T17:51:31;13.00;99.90
51637;DHT22;37713;53.254;6.460;2022-10-31T17:53:58;12.80;99.90
51637;DHT22;37713;53.254;6.460;2022-10-31T17:56:23;12.80;99.90
51637;DHT22;37713;53.254;6.460;2022-10-31T17:58:49;12.90;99.90
51637;DHT22;37713;53.254;6.460;2022-10-31T18:01:17;12.80;99.90
51637;DHT22;37713;53.254;6.460;2022-10-31T18:03:43;12.90;99.90
51637;DHT22;37713;53.254;6.460;2022-10-31T18:06:10;13.00;99.90
51637;DHT22;37713;53.254;6.460;2022-10-31T18:08:38;12.80;99.90
51637;DHT22;37713;53.254;6.460;2022-10-31T18:11:05;12.90;99.90